sensor_id;sensor_type;location;lat;lon;timestamp;pressure;altitude;pressure_sealevel;temperature;humidity
25232;BME280;13176;51.140;6.290;2023-09-12T00:00:10;100558.25;;;23.23;86.43
25232;BME280;13176;51.140;6.290;2023-09-12T00:02:38;100569.97;;;23.33;93.29
25232;BME280;13176;51.140;6.290;2023-09-12T00:05:05;100588.75;;;23.44;90.82
25232;BME280;13176;51.140;6.290;2023-09-12T00:07:31;100471.56;;;22.54;92.28
25232;BME280;13176;51.140;6.290;2023-09-12T00:09:58;100562.47;;;23.13;98.97
25232;BME280;13176;51.140;6.290;2023-09-12T00:12:24;100592.78;;;23.49;89.92
25232;BME280;13176;51.140;6.290;2023-09-12T00:14:51;100564.47;;;23.48;90.39
25232;BME280;13176;51.140;6.290;2023-09-12T00:17:17;100488.78;;;23.26;93.04
25232;BME280;13176;51.140;6.290;2023-09-12T00:19:44;100551.03;;;23.87;91.50
25232;BME280;13176;51.140;6.290;2023-09-12T00:22:11;100555.72;;;23.96;88.38
25232;BME280;13176;51.140;6.290;2023-09-12T00:24:37;100433.91;;;23.36;90.36
25232;BME280;13176;51.140;6.290;2023-09-12T00:27:04;100456.38;;;23.57;87.82
25232;BME280;13176;51.140;6.290;2023-09-12T00:29:32;100546.78;;;23.97;87.25
25232;BME280;13176;51.140;6.290;2023-09-12T00:31:58;100429.53;;;23.22;93.71
25232;BME280;13176;51.140;6.290;2023-09-12T00:34:25;100446.38;;;23.48;93.73
25232;BME280;13176;51.140;6.290;2023-09-12T00:36:51;100547.38;;;24.26;89.40
25232;BME280;13176;51.140;6.290;2023-09-12T00:39:18;100461.34;;;23.74;86.63
25232;BME280;13176;51.140;6.290;2023-09-12T00:41:45;100408.03;;;23.25;90.06
25232;BME280;13176;51.140;6.290;2023-09-12T00:44:11;100543.56;;;24.05;90.96
25232;BME280;13176;51.140;6.290;2023-09-12T00:46:39;100556.09;;;24.27;92.08
25232;BME280;13176;51.140;6.290;2023-09-12T00:49:07;100555.44;;;24.36;89.18
25232;BME280;13176;51.140;6.290;2023-09-12T00:51:35;100520.59;;;24.15;87.18
25232;BME280;13176;51.140;6.290;2023-09-12T00:54:03;100561.88;;;24.22;86.57
25232;BME280;13176;51.140;6.290;2023-09-12T00:56:29;100568.75;;;24.01;86.88
25232;BME280;13176;51.140;6.290;2023-09-12T00:58:57;100481.31;;;23.31;89.85
25232;BME280;13176;51.140;6.290;2023-09-12T01:01:24;100491.66;;;23.48;93.88
25232;BME280;13176;51.140;6.290;2023-09-12T01:03:50;100518.84;;;24.03;92.89
25232;BME280;13176;51.140;6.290;2023-09-12T01:06:19;100549.91;;;24.39;93.21
25232;BME280;13176;51.140;6.290;2023-09-12T01:08:48;100468.72;;;23.83;91.08
25232;BME280;13176;51.140;6.290;2023-09-12T01:11:16;100524.09;;;24.27;89.11
25232;BME280;13176;51.140;6.290;2023-09-12T01:13:43;100538.75;;;24.45;87.86
25232;BME280;13176;51.140;6.290;2023-09-12T01:16:09;100440.88;;;23.87;86.85
25232;BME280;13176;51.140;6.290;2023-09-12T01:18:36;100494.50;;;24.07;87.81
25232;BME280;13176;51.140;6.290;2023-09-12T01:26:17;100547.59;;;24.58;90.19
25232;BME280;13176;51.140;6.290;2023-09-12T01:28:51;100500.59;;;24.32;89.75
25232;BME280;13176;51.140;6.290;2023-09-12T01:31:22;100543.84;;;24.61;87.48
25232;BME280;13176;51.140;6.290;2023-09-12T01:33:48;100512.75;;;24.36;85.56
25232;BME280;13176;51.140;6.290;2023-09-12T01:36:15;100436.41;;;23.75;86.74
25232;BME280;13176;51.140;6.290;2023-09-12T01:38:42;100458.47;;;23.77;90.20
25232;BME280;13176;51.140;6.290;2023-09-12T01:41:09;100466.59;;;23.88;90.56
25232;BME280;13176;51.140;6.290;2023-09-12T01:43:36;100433.25;;;23.82;90.21
25232;BME280;13176;51.140;6.290;2023-09-12T01:46:03;100541.88;;;24.39;87.36
25232;BME280;13176;51.140;6.290;2023-09-12T01:48:32;100554.34;;;24.51;89.41
25232;BME280;13176;51.140;6.290;2023-09-12T01:51:04;100511.75;;;24.14;87.43
25232;BME280;13176;51.140;6.290;2023-09-12T01:53:32;100504.75;;;23.76;85.45
25232;BME280;13176;51.140;6.290;2023-09-12T01:55:59;100563.16;;;23.29;88.86
25232;BME280;13176;51.140;6.290;2023-09-12T01:58:26;100585.81;;;23.86;90.15
25232;BME280;13176;51.140;6.290;2023-09-12T02:00:53;100434.66;;;23.38;92.83
25232;BME280;13176;51.140;6.290;2023-09-12T02:03:19;100499.75;;;23.34;97.71
25232;BME280;13176;51.140;6.290;2023-09-12T02:05:46;100542.06;;;23.26;99.43
25232;BME280;13176;51.140;6.290;2023-09-12T02:08:13;100538.09;;;23.19;98.78
25232;BME280;13176;51.140;6.290;2023-09-12T02:10:39;100501.91;;;22.90;100.00
25232;BME280;13176;51.140;6.290;2023-09-12T02:13:06;100488.41;;;22.93;100.00
25232;BME280;13176;51.140;6.290;2023-09-12T02:15:32;100444.78;;;22.69;100.00
25232;BME280;13176;51.140;6.290;2023-09-12T02:18:01;100464.31;;;22.82;100.00
25232;BME280;13176;51.140;6.290;2023-09-12T02:20:28;100441.31;;;22.81;100.00
25232;BME280;13176;51.140;6.290;2023-09-12T02:22:55;100416.75;;;23.15;100.00
25232;BME280;13176;51.140;6.290;2023-09-12T02:25:24;100500.66;;;24.08;98.61
25232;BME280;13176;51.140;6.290;2023-09-12T02:27:50;100486.00;;;23.90;97.76
25232;BME280;13176;51.140;6.290;2023-09-12T02:30:17;100479.84;;;23.52;98.15
25232;BME280;13176;51.140;6.290;2023-09-12T02:32:43;100444.47;;;23.25;99.75
25232;BME280;13176;51.140;6.290;2023-09-12T02:35:10;100431.44;;;23.20;100.00
25232;BME280;13176;51.140;6.290;2023-09-12T02:37:36;100464.19;;;23.47;100.00
25232;BME280;13176;51.140;6.290;2023-09-12T02:40:03;100465.97;;;23.47;98.98
25232;BME280;13176;51.140;6.290;2023-09-12T02:42:33;100486.22;;;23.62;100.00
25232;BME280;13176;51.140;6.290;2023-09-12T02:45:00;100484.09;;;23.67;99.51
25232;BME280;13176;51.140;6.290;2023-09-12T02:47:26;100517.22;;;24.00;98.56
25232;BME280;13176;51.140;6.290;2023-09-12T02:49:52;100496.88;;;23.87;98.40
25232;BME280;13176;51.140;6.290;2023-09-12T02:52:19;100473.66;;;23.64;98.71
25232;BME280;13176;51.140;6.290;2023-09-12T02:54:45;100492.59;;;23.59;100.00
25232;BME280;13176;51.140;6.290;2023-09-12T02:57:12;100504.97;;;23.73;100.00
25232;BME280;13176;51.140;6.290;2023-09-12T02:59:38;100525.69;;;23.82;100.00
25232;BME280;13176;51.140;6.290;2023-09-12T03:02:05;100457.44;;;23.42;100.00
25232;BME280;13176;51.140;6.290;2023-09-12T03:04:35;100532.94;;;23.80;100.00
25232;BME280;13176;51.140;6.290;2023-09-12T03:07:09;100410.97;;;22.96;100.00
25232;BME280;13176;51.140;6.290;2023-09-12T03:09:35;100494.75;;;23.54;100.00
25232;BME280;13176;51.140;6.290;2023-09-12T03:12:07;100504.75;;;23.63;99.99
25232;BME280;13176;51.140;6.290;2023-09-12T03:14:34;100390.13;;;22.90;100.00
25232;BME280;13176;51.140;6.290;2023-09-12T03:17:00;100493.91;;;23.54;100.00
25232;BME280;13176;51.140;6.290;2023-09-12T03:19:29;100476.22;;;23.53;100.00
25232;BME280;13176;51.140;6.290;2023-09-12T03:21:56;100469.38;;;23.49;100.00
25232;BME280;13176;51.140;6.290;2023-09-12T03:24:22;100481.72;;;23.62;100.00
25232;BME280;13176;51.140;6.290;2023-09-12T03:26:51;100444.56;;;23.36;100.00
25232;BME280;13176;51.140;6.290;2023-09-12T03:29:18;100503.78;;;23.77;99.76
25232;BME280;13176;51.140;6.290;2023-09-12T03:31:44;100493.06;;;23.66;100.00
25232;BME280;13176;51.140;6.290;2023-09-12T03:34:11;100484.00;;;23.43;100.00
25232;BME280;13176;51.140;6.290;2023-09-12T03:36:38;100445.53;;;23.10;100.00
25232;BME280;13176;51.140;6.290;2023-09-12T03:39:04;100450.22;;;23.19;100.00
25232;BME280;13176;51.140;6.290;2023-09-12T03:41:34;100443.59;;;23.12;100.00
25232;BME280;13176;51.140;6.290;2023-09-12T03:44:01;100413.53;;;22.85;100.00
25232;BME280;13176;51.140;6.290;2023-09-12T03:46:30;100428.63;;;22.85;100.00
25232;BME280;13176;51.140;6.290;2023-09-12T03:48:56;100481.97;;;23.22;100.00
25232;BME280;13176;51.140;6.290;2023-09-12T03:51:23;100373.25;;;22.52;100.00
25232;BME280;13176;51.140;6.290;2023-09-12T03:53:50;100465.88;;;23.11;100.00
25232;BME280;13176;51.140;6.290;2023-09-12T03:59:56;100394.97;;;22.71;100.00
25232;BME280;13176;51.140;6.290;2023-09-12T04:02:23;100389.75;;;22.57;100.00
25232;BME280;13176;51.140;6.290;2023-09-12T04:04:51;100352.75;;;22.28;100.00
25232;BME280;13176;51.140;6.290;2023-09-12T04:07:18;100478.06;;;23.01;100.00
25232;BME280;13176;51.140;6.290;2023-09-12T04:09:45;100419.22;;;22.54;100.00
25232;BME280;13176;51.140;6.290;2023-09-12T04:12:11;100392.88;;;22.37;100.00
25232;BME280;13176;51.140;6.290;2023-09-12T04:14:38;100412.63;;;22.60;100.00
25232;BME280;13176;51.140;6.290;2023-09-12T04:17:04;100414.34;;;22.73;100.00
25232;BME280;13176;51.140;6.290;2023-09-12T04:19:34;100350.06;;;22.54;100.00
25232;BME280;13176;51.140;6.290;2023-09-12T04:22:01;100407.34;;;22.97;100.00
25232;BME280;13176;51.140;6.290;2023-09-12T04:24:27;100431.25;;;23.11;100.00
25232;BME280;13176;51.140;6.290;2023-09-12T04:26:54;100466.19;;;23.44;100.00
25232;BME280;13176;51.140;6.290;2023-09-12T04:29:20;100463.44;;;23.45;100.00
25232;BME280;13176;51.140;6.290;2023-09-12T04:31:47;100391.63;;;22.94;100.00
25232;BME280;13176;51.140;6.290;2023-09-12T04:34:14;100402.47;;;22.91;100.00
25232;BME280;13176;51.140;6.290;2023-09-12T04:36:40;100415.44;;;22.83;100.00
25232;BME280;13176;51.140;6.290;2023-09-12T04:39:07;100484.38;;;23.12;100.00
25232;BME280;13176;51.140;6.290;2023-09-12T04:41:34;100424.16;;;22.73;100.00
25232;BME280;13176;51.140;6.290;2023-09-12T04:44:00;100416.25;;;22.32;100.00
25232;BME280;13176;51.140;6.290;2023-09-12T04:46:28;100437.53;;;22.32;100.00
25232;BME280;13176;51.140;6.290;2023-09-12T04:48:54;100494.41;;;22.70;100.00
25232;BME280;13176;51.140;6.290;2023-09-12T04:51:21;100514.19;;;22.66;100.00
25232;BME280;13176;51.140;6.290;2023-09-12T04:53:47;100449.84;;;22.47;100.00
25232;BME280;13176;51.140;6.290;2023-09-12T04:56:17;100488.25;;;22.82;100.00
25232;BME280;13176;51.140;6.290;2023-09-12T04:58:44;100510.69;;;23.05;100.00
25232;BME280;13176;51.140;6.290;2023-09-12T05:01:11;100488.06;;;22.85;100.00
25232;BME280;13176;51.140;6.290;2023-09-12T05:03:40;100483.56;;;22.73;100.00
25232;BME280;13176;51.140;6.290;2023-09-12T05:06:09;100462.03;;;22.64;100.00
25232;BME280;13176;51.140;6.290;2023-09-12T05:08:36;100468.38;;;22.61;100.00
25232;BME280;13176;51.140;6.290;2023-09-12T05:11:06;100426.53;;;22.24;100.00
25232;BME280;13176;51.140;6.290;2023-09-12T05:13:32;100480.06;;;22.46;100.00
25232;BME280;13176;51.140;6.290;2023-09-12T05:16:00;100567.00;;;22.72;100.00
25232;BME280;13176;51.140;6.290;2023-09-12T05:18:26;100520.03;;;22.04;100.00
25232;BME280;13176;51.140;6.290;2023-09-12T05:20:53;100527.84;;;21.80;100.00
25232;BME280;13176;51.140;6.290;2023-09-12T05:23:20;100580.03;;;22.36;100.00
25232;BME280;13176;51.140;6.290;2023-09-12T05:25:47;100603.13;;;22.62;100.00
25232;BME280;13176;51.140;6.290;2023-09-12T05:28:13;100513.22;;;22.41;100.00
25232;BME280;13176;51.140;6.290;2023-09-12T05:30:43;100505.22;;;22.14;100.00
25232;BME280;13176;51.140;6.290;2023-09-12T05:33:09;100561.56;;;22.33;100.00
25232;BME280;13176;51.140;6.290;2023-09-12T05:35:36;100551.72;;;22.35;100.00
25232;BME280;13176;51.140;6.290;2023-09-12T05:38:03;100489.25;;;22.14;100.00
25232;BME280;13176;51.140;6.290;2023-09-12T05:40:30;100441.34;;;22.02;100.00
25232;BME280;13176;51.140;6.290;2023-09-12T05:42:56;100473.88;;;22.19;100.00
25232;BME280;13176;51.140;6.290;2023-09-12T05:45:23;100326.56;;;21.29;100.00
25232;BME280;13176;51.140;6.290;2023-09-12T05:47:49;100447.50;;;21.88;100.00
25232;BME280;13176;51.140;6.290;2023-09-12T05:50:17;100460.63;;;21.91;100.00
25232;BME280;13176;51.140;6.290;2023-09-12T05:52:43;100464.41;;;22.01;100.00
25232;BME280;13176;51.140;6.290;2023-09-12T05:55:09;100537.47;;;22.36;100.00
25232;BME280;13176;51.140;6.290;2023-09-12T05:57:36;100515.22;;;22.23;100.00
25232;BME280;13176;51.140;6.290;2023-09-12T06:00:03;100512.94;;;22.31;100.00
25232;BME280;13176;51.140;6.290;2023-09-12T06:02:36;100490.47;;;22.23;100.00
25232;BME280;13176;51.140;6.290;2023-09-12T06:05:03;100493.75;;;22.26;100.00
25232;BME280;13176;51.140;6.290;2023-09-12T06:07:29;100422.84;;;21.87;100.00
25232;BME280;13176;51.140;6.290;2023-09-12T06:09:56;100493.94;;;22.23;100.00
25232;BME280;13176;51.140;6.290;2023-09-12T06:12:23;100422.13;;;21.85;100.00
25232;BME280;13176;51.140;6.290;2023-09-12T06:14:51;100526.03;;;22.48;100.00
25232;BME280;13176;51.140;6.290;2023-09-12T06:17:17;100503.84;;;22.35;100.00
25232;BME280;13176;51.140;6.290;2023-09-12T06:19:43;100532.31;;;22.47;100.00
25232;BME280;13176;51.140;6.290;2023-09-12T06:22:10;100499.50;;;22.20;100.00
25232;BME280;13176;51.140;6.290;2023-09-12T06:24:36;100478.44;;;22.17;100.00
25232;BME280;13176;51.140;6.290;2023-09-12T06:27:05;100465.06;;;22.31;100.00
25232;BME280;13176;51.140;6.290;2023-09-12T06:29:32;100524.94;;;22.65;100.00
25232;BME280;13176;51.140;6.290;2023-09-12T06:31:58;100493.72;;;22.54;100.00
25232;BME280;13176;51.140;6.290;2023-09-12T06:34:24;100504.81;;;22.61;100.00
25232;BME280;13176;51.140;6.290;2023-09-12T06:36:51;100547.94;;;22.92;100.00
25232;BME280;13176;51.140;6.290;2023-09-12T06:39:17;100488.78;;;22.48;100.00
25232;BME280;13176;51.140;6.290;2023-09-12T06:41:44;100546.25;;;23.04;100.00
25232;BME280;13176;51.140;6.290;2023-09-12T06:44:10;100496.09;;;22.71;100.00
25232;BME280;13176;51.140;6.290;2023-09-12T06:46:37;100508.25;;;22.75;100.00
25232;BME280;13176;51.140;6.290;2023-09-12T06:49:04;100492.53;;;22.97;100.00
25232;BME280;13176;51.140;6.290;2023-09-12T06:51:31;100559.56;;;23.55;100.00
25232;BME280;13176;51.140;6.290;2023-09-12T06:54:03;100536.00;;;23.36;100.00
25232;BME280;13176;51.140;6.290;2023-09-12T06:56:29;100510.84;;;23.53;100.00
25232;BME280;13176;51.140;6.290;2023-09-12T06:58:56;100512.44;;;23.43;100.00
25232;BME280;13176;51.140;6.290;2023-09-12T07:01:22;100500.94;;;23.30;100.00
25232;BME280;13176;51.140;6.290;2023-09-12T07:03:49;100493.78;;;23.43;100.00
25232;BME280;13176;51.140;6.290;2023-09-12T07:06:20;100510.31;;;23.48;100.00
25232;BME280;13176;51.140;6.290;2023-09-12T07:08:46;100527.78;;;23.52;100.00
25232;BME280;13176;51.140;6.290;2023-09-12T07:11:13;100495.41;;;23.58;100.00
25232;BME280;13176;51.140;6.290;2023-09-12T07:13:40;100440.19;;;23.10;100.00
25232;BME280;13176;51.140;6.290;2023-09-12T07:16:09;100545.81;;;23.61;100.00
25232;BME280;13176;51.140;6.290;2023-09-12T07:18:36;100540.59;;;23.47;100.00
25232;BME280;13176;51.140;6.290;2023-09-12T07:21:04;100548.03;;;23.42;100.00
25232;BME280;13176;51.140;6.290;2023-09-12T07:23:31;100488.88;;;23.12;100.00
25232;BME280;13176;51.140;6.290;2023-09-12T07:25:58;100433.13;;;22.84;100.00
25232;BME280;13176;51.140;6.290;2023-09-12T07:28:26;100546.78;;;23.60;100.00
25232;BME280;13176;51.140;6.290;2023-09-12T07:30:54;100544.75;;;23.63;100.00
25232;BME280;13176;51.140;6.290;2023-09-12T07:33:21;100469.94;;;23.29;100.00
25232;BME280;13176;51.140;6.290;2023-09-12T07:35:49;100565.97;;;23.77;100.00
25232;BME280;13176;51.140;6.290;2023-09-12T07:38:18;100564.47;;;23.73;100.00
25232;BME280;13176;51.140;6.290;2023-09-12T07:40:46;100541.44;;;23.60;100.00
25232;BME280;13176;51.140;6.290;2023-09-12T07:43:12;100555.53;;;23.62;100.00
25232;BME280;13176;51.140;6.290;2023-09-12T07:45:38;100546.25;;;23.55;100.00
25232;BME280;13176;51.140;6.290;2023-09-12T07:48:06;100487.28;;;23.22;100.00
25232;BME280;13176;51.140;6.290;2023-09-12T07:50:34;100537.28;;;23.56;100.00
25232;BME280;13176;51.140;6.290;2023-09-12T07:53:00;100503.50;;;23.44;100.00
25232;BME280;13176;51.140;6.290;2023-09-12T07:55:26;100546.34;;;23.66;100.00
25232;BME280;13176;51.140;6.290;2023-09-12T07:57:57;100547.31;;;23.65;100.00
25232;BME280;13176;51.140;6.290;2023-09-12T08:00:24;100549.09;;;23.77;100.00
25232;BME280;13176;51.140;6.290;2023-09-12T08:02:50;100559.16;;;23.86;100.00
25232;BME280;13176;51.140;6.290;2023-09-12T08:05:17;100544.19;;;23.71;100.00
25232;BME280;13176;51.140;6.290;2023-09-12T08:07:45;100574.47;;;23.70;100.00
25232;BME280;13176;51.140;6.290;2023-09-12T08:10:11;100563.31;;;23.65;100.00
25232;BME280;13176;51.140;6.290;2023-09-12T08:12:38;100579.22;;;23.79;100.00
25232;BME280;13176;51.140;6.290;2023-09-12T08:15:08;100570.34;;;23.66;100.00
25232;BME280;13176;51.140;6.290;2023-09-12T08:17:35;100568.63;;;23.77;100.00
25232;BME280;13176;51.140;6.290;2023-09-12T08:20:01;100577.28;;;23.81;100.00
25232;BME280;13176;51.140;6.290;2023-09-12T08:22:29;100591.56;;;23.80;100.00
25232;BME280;13176;51.140;6.290;2023-09-12T08:24:55;100594.16;;;23.81;100.00
25232;BME280;13176;51.140;6.290;2023-09-12T08:27:21;100581.97;;;23.65;100.00
25232;BME280;13176;51.140;6.290;2023-09-12T08:29:52;100552.94;;;23.35;100.00
25232;BME280;13176;51.140;6.290;2023-09-12T08:32:19;100531.41;;;23.26;100.00
25232;BME280;13176;51.140;6.290;2023-09-12T08:34:45;100533.53;;;23.21;100.00
25232;BME280;13176;51.140;6.290;2023-09-12T08:37:12;100605.00;;;23.66;100.00
25232;BME280;13176;51.140;6.290;2023-09-12T08:39:43;100589.41;;;23.72;100.00
25232;BME280;13176;51.140;6.290;2023-09-12T08:42:16;100586.25;;;23.80;100.00
25232;BME280;13176;51.140;6.290;2023-09-12T08:44:43;100609.72;;;24.00;100.00
25232;BME280;13176;51.140;6.290;2023-09-12T08:47:10;100616.75;;;24.13;100.00
25232;BME280;13176;51.140;6.290;2023-09-12T08:49:38;100631.47;;;24.19;100.00
25232;BME280;13176;51.140;6.290;2023-09-12T08:52:05;100580.72;;;23.83;100.00
25232;BME280;13176;51.140;6.290;2023-09-12T08:54:32;100617.81;;;23.98;100.00
25232;BME280;13176;51.140;6.290;2023-09-12T08:57:01;100635.50;;;24.12;100.00
25232;BME280;13176;51.140;6.290;2023-09-12T08:59:31;100582.00;;;23.90;100.00
25232;BME280;13176;51.140;6.290;2023-09-12T09:01:59;100633.81;;;24.35;100.00
25232;BME280;13176;51.140;6.290;2023-09-12T09:04:28;100613.28;;;24.36;100.00
25232;BME280;13176;51.140;6.290;2023-09-12T09:06:58;100631.63;;;24.40;100.00
25232;BME280;13176;51.140;6.290;2023-09-12T09:09:26;100601.31;;;24.41;99.98
25232;BME280;13176;51.140;6.290;2023-09-12T09:11:55;100568.72;;;24.26;100.00
25232;BME280;13176;51.140;6.290;2023-09-12T09:14:21;100588.31;;;24.49;98.87
25232;BME280;13176;51.140;6.290;2023-09-12T09:16:49;100618.09;;;24.79;99.17
25232;BME280;13176;51.140;6.290;2023-09-12T09:19:16;100625.75;;;24.96;99.03
25232;BME280;13176;51.140;6.290;2023-09-12T09:21:44;100605.16;;;24.62;99.46
25232;BME280;13176;51.140;6.290;2023-09-12T09:24:14;100621.47;;;24.70;99.92
25232;BME280;13176;51.140;6.290;2023-09-12T09:26:48;100592.06;;;24.34;99.84
25232;BME280;13176;51.140;6.290;2023-09-12T09:29:17;100627.06;;;24.78;100.00
25232;BME280;13176;51.140;6.290;2023-09-12T09:31:46;100617.22;;;24.91;100.00
25232;BME280;13176;51.140;6.290;2023-09-12T09:34:14;100529.88;;;24.57;99.37
25232;BME280;13176;51.140;6.290;2023-09-12T09:36:44;100587.84;;;24.91;98.23
25232;BME280;13176;51.140;6.290;2023-09-12T09:39:13;100633.16;;;25.16;99.79
25232;BME280;13176;51.140;6.290;2023-09-12T09:41:40;100609.72;;;24.96;97.34
25232;BME280;13176;51.140;6.290;2023-09-12T09:44:07;100620.31;;;25.21;98.22
25232;BME280;13176;51.140;6.290;2023-09-12T09:46:35;100564.19;;;25.21;96.30
25232;BME280;13176;51.140;6.290;2023-09-12T09:49:03;100507.13;;;24.99;96.14
25232;BME280;13176;51.140;6.290;2023-09-12T09:51:30;100612.22;;;25.79;96.32
25232;BME280;13176;51.140;6.290;2023-09-12T09:53:58;100618.28;;;25.70;95.79
25232;BME280;13176;51.140;6.290;2023-09-12T09:56:26;100546.97;;;24.78;94.44
25232;BME280;13176;51.140;6.290;2023-09-12T09:58:54;100560.00;;;24.83;95.88
25232;BME280;13176;51.140;6.290;2023-09-12T10:01:31;100587.25;;;24.99;96.28
25232;BME280;13176;51.140;6.290;2023-09-12T10:04:00;100608.59;;;25.11;96.66
25232;BME280;13176;51.140;6.290;2023-09-12T10:06:28;100591.19;;;25.29;94.93
25232;BME280;13176;51.140;6.290;2023-09-12T10:08:59;100571.63;;;25.05;95.60
25232;BME280;13176;51.140;6.290;2023-09-12T10:11:28;100581.63;;;25.14;95.42
25232;BME280;13176;51.140;6.290;2023-09-12T10:14:00;100547.78;;;24.91;94.06
25232;BME280;13176;51.140;6.290;2023-09-12T10:16:40;100596.47;;;25.18;92.65
25232;BME280;13176;51.140;6.290;2023-09-12T10:19:20;100619.84;;;25.27;93.02
25232;BME280;13176;51.140;6.290;2023-09-12T10:24:25;100517.19;;;24.95;93.98
25232;BME280;13176;51.140;6.290;2023-09-12T10:26:55;100547.75;;;25.60;91.74
25232;BME280;13176;51.140;6.290;2023-09-12T10:29:22;100595.25;;;26.02;91.51
25232;BME280;13176;51.140;6.290;2023-09-12T10:31:51;100599.38;;;26.39;90.52
25232;BME280;13176;51.140;6.290;2023-09-12T10:34:18;100586.00;;;26.39;88.51
25232;BME280;13176;51.140;6.290;2023-09-12T10:36:47;100547.34;;;26.10;86.35
25232;BME280;13176;51.140;6.290;2023-09-12T10:39:19;100614.75;;;26.15;85.04
25232;BME280;13176;51.140;6.290;2023-09-12T10:41:46;100609.75;;;25.99;85.99
25232;BME280;13176;51.140;6.290;2023-09-12T10:44:16;100560.44;;;25.69;85.04
25232;BME280;13176;51.140;6.290;2023-09-12T10:46:45;100574.41;;;25.72;85.77
25232;BME280;13176;51.140;6.290;2023-09-12T10:49:13;100600.59;;;25.91;85.33
25232;BME280;13176;51.140;6.290;2023-09-12T10:51:41;100596.97;;;26.14;85.61
25232;BME280;13176;51.140;6.290;2023-09-12T10:54:13;100589.97;;;26.77;80.07
25232;BME280;13176;51.140;6.290;2023-09-12T10:56:40;100571.22;;;27.19;80.93
25232;BME280;13176;51.140;6.290;2023-09-12T11:01:37;100593.03;;;27.46;75.99
25232;BME280;13176;51.140;6.290;2023-09-12T11:06:54;100584.28;;;27.33;78.21
25232;BME280;13176;51.140;6.290;2023-09-12T11:09:23;100585.69;;;27.48;75.51
25232;BME280;13176;51.140;6.290;2023-09-12T11:12:04;100554.22;;;27.50;77.39
25232;BME280;13176;51.140;6.290;2023-09-12T11:14:34;100567.38;;;27.53;77.53
25232;BME280;13176;51.140;6.290;2023-09-12T11:19:47;100595.56;;;27.88;74.30
25232;BME280;13176;51.140;6.290;2023-09-12T11:22:31;100555.47;;;27.46;72.24
25232;BME280;13176;51.140;6.290;2023-09-12T11:25:02;100578.50;;;27.28;71.28
25232;BME280;13176;51.140;6.290;2023-09-12T11:30:11;100596.44;;;27.17;73.51
25232;BME280;13176;51.140;6.290;2023-09-12T11:32:37;100614.72;;;27.43;72.78
25232;BME280;13176;51.140;6.290;2023-09-12T11:35:07;100617.66;;;27.40;71.49
25232;BME280;13176;51.140;6.290;2023-09-12T11:37:34;100618.75;;;27.49;69.39
25232;BME280;13176;51.140;6.290;2023-09-12T11:42:42;100620.47;;;27.18;68.78
25232;BME280;13176;51.140;6.290;2023-09-12T11:45:12;100632.53;;;27.44;68.60
25232;BME280;13176;51.140;6.290;2023-09-12T11:47:42;100628.84;;;27.77;65.91
25232;BME280;13176;51.140;6.290;2023-09-12T11:50:26;100625.00;;;28.50;66.48
25232;BME280;13176;51.140;6.290;2023-09-12T11:53:00;100630.28;;;28.61;64.34
25232;BME280;13176;51.140;6.290;2023-09-12T11:55:27;100541.28;;;28.05;64.54
25232;BME280;13176;51.140;6.290;2023-09-12T11:57:57;100567.19;;;28.16;63.28
25232;BME280;13176;51.140;6.290;2023-09-12T12:00:23;100550.59;;;28.01;61.61
25232;BME280;13176;51.140;6.290;2023-09-12T12:02:53;100583.78;;;28.00;63.63
25232;BME280;13176;51.140;6.290;2023-09-12T12:05:21;100572.47;;;27.97;62.75
25232;BME280;13176;51.140;6.290;2023-09-12T12:07:49;100496.28;;;27.38;64.16
25232;BME280;13176;51.140;6.290;2023-09-12T12:10:17;100591.56;;;27.74;63.35
25232;BME280;13176;51.140;6.290;2023-09-12T12:12:44;100522.91;;;27.30;64.77
25232;BME280;13176;51.140;6.290;2023-09-12T12:15:13;100531.94;;;27.29;67.64
25232;BME280;13176;51.140;6.290;2023-09-12T12:17:41;100535.72;;;27.47;63.65
25232;BME280;13176;51.140;6.290;2023-09-12T12:20:09;100501.25;;;27.43;66.30
25232;BME280;13176;51.140;6.290;2023-09-12T12:22:40;100553.94;;;27.94;66.04
25232;BME280;13176;51.140;6.290;2023-09-12T12:25:10;100565.47;;;28.45;67.14
25232;BME280;13176;51.140;6.290;2023-09-12T12:27:40;100516.59;;;28.21;65.38
25232;BME280;13176;51.140;6.290;2023-09-12T12:30:08;100574.66;;;28.42;66.18
25232;BME280;13176;51.140;6.290;2023-09-12T12:32:45;100502.19;;;28.12;67.02
25232;BME280;13176;51.140;6.290;2023-09-12T12:35:30;100569.19;;;28.53;66.29
25232;BME280;13176;51.140;6.290;2023-09-12T12:38:17;100581.91;;;28.51;63.98
25232;BME280;13176;51.140;6.290;2023-09-12T12:40:45;100426.81;;;27.95;64.52
25232;BME280;13176;51.140;6.290;2023-09-12T12:43:18;100574.22;;;29.05;56.89
25232;BME280;13176;51.140;6.290;2023-09-12T12:45:56;100545.38;;;29.07;61.08
25232;BME280;13176;51.140;6.290;2023-09-12T12:48:35;100531.47;;;29.59;58.01
25232;BME280;13176;51.140;6.290;2023-09-12T12:51:20;100556.28;;;29.89;55.82
25232;BME280;13176;51.140;6.290;2023-09-12T12:53:50;100556.09;;;29.54;54.77
25232;BME280;13176;51.140;6.290;2023-09-12T12:56:22;100496.38;;;29.41;58.35
25232;BME280;13176;51.140;6.290;2023-09-12T12:58:51;100490.28;;;29.85;57.88
25232;BME280;13176;51.140;6.290;2023-09-12T13:01:18;100523.66;;;30.11;57.62
25232;BME280;13176;51.140;6.290;2023-09-12T13:03:45;100487.25;;;29.61;56.31
25232;BME280;13176;51.140;6.290;2023-09-12T13:06:13;100536.47;;;29.81;57.79
25232;BME280;13176;51.140;6.290;2023-09-12T13:08:45;100520.09;;;29.74;55.16
25232;BME280;13176;51.140;6.290;2023-09-12T13:11:13;100543.38;;;30.29;56.64
25232;BME280;13176;51.140;6.290;2023-09-12T13:13:43;100526.59;;;29.81;55.96